Frances Anne — WDE8555 — position and weather

sailwx.info

Track history (hours):
 
Tides and Currents Weather Stations Pressure Air Temp Water Temp Dewpoint Dewpoint Depression Visibility Wind Speed Wind Dir Waves Ship Positions

Frances Anne

Owner: Frances Anne Inc., West Creek, NJ. More information available from US FCC via Universal Licensing System and Coast Guard Vessel Documentation Center.

Last reported at 2015-May-26 01:29 UTC. Time now 2015-May-26 01:45 UTC.
Position N 39°46' W 074°06'.

Type: Fishing. MMSI: 367406910.

Date/timePositionNaut miles runAvg speedWind from/ knotsBaromVisibWave heightAir tempDewpointWater temp
2015-May-26 01:29N 39°46' W 074°06'0 0.0
2015-May-26 00:05N 39°46' W 074°07'0 0.0
2015-May-25 23:20N 39°46' W 074°07'0 0.0
2015-May-25 22:26N 39°46' W 074°07'0 0.0
2015-May-25 21:32N 39°46' W 074°07'0 0.0
2015-May-25 20:32N 39°46' W 074°07'0 0.1
2015-May-25 19:14N 39°46' W 074°07'0 0.0
2015-May-25 18:32N 39°46' W 074°07'0 0.0
2015-May-25 17:26N 39°46' W 074°07'0 0.0
2015-May-25 16:29N 39°46' W 074°07'6 6.5
2015-May-25 15:33N 39°44' W 073°59'7 6.9
2015-May-25 14:31N 39°42' W 073°50'21 7.0
2015-May-25 11:31N 39°37' W 073°24'20 6.8
2015-May-25 08:30N 39°31' W 072°59'6 6.8
2015-May-25 07:33N 39°29' W 072°51'7 7.0
2015-May-25 06:30N 39°27' W 072°41'8 7.6
2015-May-25 05:28N 39°25' W 072°32'7 7.5
2015-May-25 04:33N 39°23' W 072°23'5 4.5
2015-May-25 03:33N 39°22' W 072°17'2 1.6
2015-May-25 02:33N 39°21' W 072°17'3 2.7
2015-May-25 01:33N 39°18' W 072°19'2 2.2
2015-May-25 00:32N 39°20' W 072°17'3 2.7
2015-May-24 23:33N 39°22' W 072°16'1 1.3
2015-May-24 22:31N 39°23' W 072°17'4 3.7
2015-May-24 21:33N 39°20' W 072°18'2 2.3
2015-May-24 20:31N 39°22' W 072°16'2 1.7
2015-May-24 19:33N 39°20' W 072°17'0 0.2
2015-May-24 18:30N 39°20' W 072°17'0 0.5
2015-May-24 17:32N 39°21' W 072°16'2 2.2
2015-May-24 16:33N 39°23' W 072°16'3 3.1
2015-May-24 15:33N 39°20' W 072°18'1 1.2
2015-May-24 14:33N 39°21' W 072°17'1 1.3
2015-May-24 13:33N 39°21' W 072°16'3 2.8
2015-May-24 12:33N 39°19' W 072°18'3 3.0
2015-May-24 11:33N 39°22' W 072°16'1 0.9
2015-May-24 10:33N 39°22' W 072°17'3 2.9
2015-May-24 09:34N 39°25' W 072°16'0 0.4
2015-May-24 08:33N 39°24' W 072°17'0 0.4
2015-May-24 07:31N 39°24' W 072°17'1 0.8
2015-May-24 06:29N 39°24' W 072°16'0 0.5
2015-May-24 05:31N 39°24' W 072°17'1 0.5
2015-May-24 04:27N 39°25' W 072°17'1 0.6
2015-May-24 03:32N 39°25' W 072°18'2 2.3
2015-May-24 02:33N 39°22' W 072°18'2 2.0
2015-May-24 01:33N 39°20' W 072°18'8 0.3
2015-May-22 21:28N 39°15' W 072°26'4 0.1
2015-May-21 16:09N 39°17' W 072°21'1 0.1
2015-May-21 00:13N 39°18' W 072°21'0 0.0
2015-May-20 11:23N 39°18' W 072°21'4 5.3
2015-May-20 10:32N 39°15' W 072°26'3 2.8
2015-May-20 09:25N 39°17' W 072°22'2 0.2
2015-May-20 02:10N 39°17' W 072°24'2 2.4
2015-May-20 01:27N 39°16' W 072°25'0 0.2
2015-May-20 00:27N 39°15' W 072°25'3 3.2
2015-May-19 23:29N 39°17' W 072°22'3 0.2
2015-May-19 07:31N 39°17' W 072°26'1 0.5
2015-May-19 06:32N 39°17' W 072°26'1 0.6
2015-May-19 05:31N 39°16' W 072°25'1 0.7
2015-May-19 04:33N 39°16' W 072°24'1 0.6
2015-May-19 03:33N 39°16' W 072°24'1 1.2
2015-May-19 02:33N 39°15' W 072°25'3 2.7
2015-May-19 01:31N 39°17' W 072°22'3 2.8
2015-May-19 00:29N 39°19' W 072°20'3 2.8
2015-May-18 23:30N 39°17' W 072°22'3 2.8
2015-May-18 22:32N 39°16' W 072°25'1 1.0
2015-May-18 21:33N 39°15' W 072°26'2 2.0
2015-May-18 20:32N 39°16' W 072°24'2 2.5
2015-May-18 19:33N 39°15' W 072°27'7 7.1
2015-May-18 18:33N 39°19' W 072°19'6 6.0
2015-May-18 17:32N 39°15' W 072°25'2 2.0
2015-May-18 16:33N 39°16' W 072°23'4 3.3
2015-May-18 15:25N 39°19' W 072°19'3 2.9
2015-May-18 14:23N 39°21' W 072°17'4 2.9
2015-May-18 13:05N 39°18' W 072°20'1 1.4
2015-May-18 12:24N 39°18' W 072°21'5 5.4
2015-May-18 11:30N 39°21' W 072°16'7 7.3
2015-May-18 10:31N 39°16' W 072°23'4 4.0
2015-May-18 09:32N 39°18' W 072°28'1 0.7
2015-May-18 08:27N 39°17' W 072°27'1 0.7
2015-May-18 07:31N 39°17' W 072°27'1 0.6
2015-May-18 06:27N 39°16' W 072°26'0 0.4
2015-May-18 05:25N 39°16' W 072°25'1 0.8
2015-May-18 04:28N 39°16' W 072°24'2 1.7
2015-May-18 03:28N 39°16' W 072°22'3 2.5
2015-May-18 02:18N 39°18' W 072°19'3 3.1
2015-May-18 01:26N 39°20' W 072°17'2 1.9
2015-May-18 00:09N 39°19' W 072°19'2 2.8
2015-May-17 23:22N 39°17' W 072°21'1 1.0
2015-May-17 22:19N 39°16' W 072°22'4 3.1
2015-May-17 21:08N 39°19' W 072°19'4 1.0
2015-May-17 17:23N 39°17' W 072°22'1 1.0
2015-May-17 16:25N 39°17' W 072°23'4 3.3
2015-May-17 15:14N 39°20' W 072°21'1 0.1
2015-May-17 01:20N 39°20' W 072°22'3 4.0
2015-May-17 00:28N 39°22' W 072°18'3 2.9
2015-May-16 23:25N 39°19' W 072°20'3 3.2
2015-May-16 22:30N 39°17' W 072°23'2 1.0
2015-May-16 20:33N 39°19' W 072°22'2 1.3
2015-May-16 19:22N 39°20' W 072°20'4 0.7
2015-May-16 13:16N 39°22' W 072°16'2 2.7
2015-May-16 12:33N 39°24' W 072°15'3 3.0
2015-May-16 11:33N 39°21' W 072°16'1 1.4
2015-May-16 10:31N 39°20' W 072°17'3 3.3
2015-May-16 09:33N 39°23' W 072°17'1 0.3
2015-May-16 06:09N 39°22' W 072°17'0 0.3
2015-May-16 05:27N 39°22' W 072°17'0 0.3
2015-May-16 04:33N 39°22' W 072°17'0 0.2
2015-May-16 03:33N 39°22' W 072°17'2 2.2
2015-May-16 02:32N 39°24' W 072°15'3 2.9
2015-May-16 01:30N 39°26' W 072°16'  
Track history (hours):
 
Tides and Currents Weather Stations Pressure Air Temp Water Temp Dewpoint Dewpoint Depression Visibility Wind Speed Wind Dir Waves Ship Positions

Frances Anne

Owner: Frances Anne Inc., West Creek, NJ. More information available from US FCC via Universal Licensing System and Coast Guard Vessel Documentation Center.

Last reported at 2015-May-26 01:29 UTC. Time now 2015-May-26 01:45 UTC.
Position N 39°46' W 074°06'.

Type: Fishing. MMSI: 367406910.

Date/timePositionNaut miles runAvg speedWind from/ knotsBaromVisibWave heightAir tempDewpointWater temp
2015-May-26 01:29N 39°46' W 074°06'0 0.0
2015-May-26 00:05N 39°46' W 074°07'0 0.0
2015-May-25 23:20N 39°46' W 074°07'0 0.0
2015-May-25 22:26N 39°46' W 074°07'0 0.0
2015-May-25 21:32N 39°46' W 074°07'0 0.0
2015-May-25 20:32N 39°46' W 074°07'0 0.1
2015-May-25 19:14N 39°46' W 074°07'0 0.0
2015-May-25 18:32N 39°46' W 074°07'0 0.0
2015-May-25 17:26N 39°46' W 074°07'0 0.0
2015-May-25 16:29N 39°46' W 074°07'6 6.5
2015-May-25 15:33N 39°44' W 073°59'7 6.9
2015-May-25 14:31N 39°42' W 073°50'21 7.0
2015-May-25 11:31N 39°37' W 073°24'20 6.8
2015-May-25 08:30N 39°31' W 072°59'6 6.8
2015-May-25 07:33N 39°29' W 072°51'7 7.0
2015-May-25 06:30N 39°27' W 072°41'8 7.6
2015-May-25 05:28N 39°25' W 072°32'7 7.5
2015-May-25 04:33N 39°23' W 072°23'5 4.5
2015-May-25 03:33N 39°22' W 072°17'2 1.6
2015-May-25 02:33N 39°21' W 072°17'3 2.7
2015-May-25 01:33N 39°18' W 072°19'2 2.2
2015-May-25 00:32N 39°20' W 072°17'3 2.7
2015-May-24 23:33N 39°22' W 072°16'1 1.3
2015-May-24 22:31N 39°23' W 072°17'4 3.7
2015-May-24 21:33N 39°20' W 072°18'2 2.3
2015-May-24 20:31N 39°22' W 072°16'2 1.7
2015-May-24 19:33N 39°20' W 072°17'0 0.2
2015-May-24 18:30N 39°20' W 072°17'0 0.5
2015-May-24 17:32N 39°21' W 072°16'2 2.2
2015-May-24 16:33N 39°23' W 072°16'3 3.1
2015-May-24 15:33N 39°20' W 072°18'1 1.2
2015-May-24 14:33N 39°21' W 072°17'1 1.3
2015-May-24 13:33N 39°21' W 072°16'3 2.8
2015-May-24 12:33N 39°19' W 072°18'3 3.0
2015-May-24 11:33N 39°22' W 072°16'1 0.9
2015-May-24 10:33N 39°22' W 072°17'3 2.9
2015-May-24 09:34N 39°25' W 072°16'0 0.4
2015-May-24 08:33N 39°24' W 072°17'0 0.4
2015-May-24 07:31N 39°24' W 072°17'1 0.8
2015-May-24 06:29N 39°24' W 072°16'0 0.5
2015-May-24 05:31N 39°24' W 072°17'1 0.5
2015-May-24 04:27N 39°25' W 072°17'1 0.6
2015-May-24 03:32N 39°25' W 072°18'2 2.3
2015-May-24 02:33N 39°22' W 072°18'2 2.0
2015-May-24 01:33N 39°20' W 072°18'8 0.3
2015-May-22 21:28N 39°15' W 072°26'4 0.1
2015-May-21 16:09N 39°17' W 072°21'1 0.1
2015-May-21 00:13N 39°18' W 072°21'0 0.0
2015-May-20 11:23N 39°18' W 072°21'4 5.3
2015-May-20 10:32N 39°15' W 072°26'3 2.8
2015-May-20 09:25N 39°17' W 072°22'2 0.2
2015-May-20 02:10N 39°17' W 072°24'2 2.4
2015-May-20 01:27N 39°16' W 072°25'0 0.2
2015-May-20 00:27N 39°15' W 072°25'3 3.2
2015-May-19 23:29N 39°17' W 072°22'3 0.2
2015-May-19 07:31N 39°17' W 072°26'1 0.5
2015-May-19 06:32N 39°17' W 072°26'1 0.6
2015-May-19 05:31N 39°16' W 072°25'1 0.7
2015-May-19 04:33N 39°16' W 072°24'1 0.6
2015-May-19 03:33N 39°16' W 072°24'1 1.2
2015-May-19 02:33N 39°15' W 072°25'3 2.7
2015-May-19 01:31N 39°17' W 072°22'3 2.8
2015-May-19 00:29N 39°19' W 072°20'3 2.8
2015-May-18 23:30N 39°17' W 072°22'3 2.8
2015-May-18 22:32N 39°16' W 072°25'1 1.0
2015-May-18 21:33N 39°15' W 072°26'2 2.0
2015-May-18 20:32N 39°16' W 072°24'2 2.5
2015-May-18 19:33N 39°15' W 072°27'7 7.1
2015-May-18 18:33N 39°19' W 072°19'6 6.0
2015-May-18 17:32N 39°15' W 072°25'2 2.0
2015-May-18 16:33N 39°16' W 072°23'4 3.3
2015-May-18 15:25N 39°19' W 072°19'3 2.9
2015-May-18 14:23N 39°21' W 072°17'4 2.9
2015-May-18 13:05N 39°18' W 072°20'1 1.4
2015-May-18 12:24N 39°18' W 072°21'5 5.4
2015-May-18 11:30N 39°21' W 072°16'7 7.3
2015-May-18 10:31N 39°16' W 072°23'4 4.0
2015-May-18 09:32N 39°18' W 072°28'1 0.7
2015-May-18 08:27N 39°17' W 072°27'1 0.7
2015-May-18 07:31N 39°17' W 072°27'1 0.6
2015-May-18 06:27N 39°16' W 072°26'0 0.4
2015-May-18 05:25N 39°16' W 072°25'1 0.8
2015-May-18 04:28N 39°16' W 072°24'2 1.7
2015-May-18 03:28N 39°16' W 072°22'3 2.5
2015-May-18 02:18N 39°18' W 072°19'3 3.1
2015-May-18 01:26N 39°20' W 072°17'2 1.9
2015-May-18 00:09N 39°19' W 072°19'2 2.8
2015-May-17 23:22N 39°17' W 072°21'1 1.0
2015-May-17 22:19N 39°16' W 072°22'4 3.1
2015-May-17 21:08N 39°19' W 072°19'4 1.0
2015-May-17 17:23N 39°17' W 072°22'1 1.0
2015-May-17 16:25N 39°17' W 072°23'4 3.3
2015-May-17 15:14N 39°20' W 072°21'1 0.1
2015-May-17 01:20N 39°20' W 072°22'3 4.0
2015-May-17 00:28N 39°22' W 072°18'3 2.9
2015-May-16 23:25N 39°19' W 072°20'3 3.2
2015-May-16 22:30N 39°17' W 072°23'2 1.0
2015-May-16 20:33N 39°19' W 072°22'2 1.3
2015-May-16 19:22N 39°20' W 072°20'4 0.7
2015-May-16 13:16N 39°22' W 072°16'2 2.7
2015-May-16 12:33N 39°24' W 072°15'3 3.0
2015-May-16 11:33N 39°21' W 072°16'1 1.4
2015-May-16 10:31N 39°20' W 072°17'3 3.3
2015-May-16 09:33N 39°23' W 072°17'1 0.3
2015-May-16 06:09N 39°22' W 072°17'0 0.3
2015-May-16 05:27N 39°22' W 072°17'0 0.3
2015-May-16 04:33N 39°22' W 072°17'0 0.2
2015-May-16 03:33N 39°22' W 072°17'2 2.2
2015-May-16 02:32N 39°24' W 072°15'3 2.9
2015-May-16 01:30N 39°26' W 072°16'  

Dump ship's entire track history